Terminal Aerodrome Forecast
Issued by NWS

Home | Current Version | Previous Version | Text Only | Print | Product List | Glossary On
Versions: 1 2 3 4 5 6 7 8 9 10 11 12 13 14 15
000
FTUS42 KTBW 012338
TAFPGD
TAF
KPGD 012338Z 0200/0224 29007KT P6SM FEW200
     FM020700 VRB04KT P6SM FEW045 FEW200
     FM021000 VRB03KT 3SM BR FEW005 SCT200
     FM021300 08006KT P6SM FEW035 SCT150
     FM021700 25008KT P6SM SCT045=

USA.gov is the U.S. government's official web portal to all federal, state and local government web resources and services.